sensor_id;sensor_type;location;lat;lon;timestamp;P1;durP1;ratioP1;P2;durP2;ratioP2
50319;SDS011;36226;53.464;9.852;2023-04-24T00:00:05;8.98;;;5.45;;
50319;SDS011;36226;53.464;9.852;2023-04-24T00:02:31;8.60;;;5.43;;
50319;SDS011;36226;53.464;9.852;2023-04-24T00:04:57;7.60;;;5.60;;
50319;SDS011;36226;53.464;9.852;2023-04-24T00:07:27;7.22;;;5.55;;
50319;SDS011;36226;53.464;9.852;2023-04-24T00:09:52;6.57;;;4.88;;
50319;SDS011;36226;53.464;9.852;2023-04-24T00:12:18;7.60;;;5.40;;
50319;SDS011;36226;53.464;9.852;2023-04-24T00:14:43;7.43;;;5.90;;
50319;SDS011;36226;53.464;9.852;2023-04-24T00:17:08;9.02;;;5.68;;
50319;SDS011;36226;53.464;9.852;2023-04-24T00:19:34;6.50;;;5.30;;
50319;SDS011;36226;53.464;9.852;2023-04-24T00:21:59;7.03;;;5.63;;
50319;SDS011;36226;53.464;9.852;2023-04-24T00:24:24;6.88;;;5.85;;
50319;SDS011;36226;53.464;9.852;2023-04-24T00:26:50;7.72;;;6.13;;
50319;SDS011;36226;53.464;9.852;2023-04-24T00:29:15;8.05;;;5.63;;
50319;SDS011;36226;53.464;9.852;2023-04-24T00:31:40;7.55;;;6.03;;
50319;SDS011;36226;53.464;9.852;2023-04-24T00:34:06;7.75;;;6.25;;
50319;SDS011;36226;53.464;9.852;2023-04-24T00:36:32;10.10;;;5.90;;
50319;SDS011;36226;53.464;9.852;2023-04-24T00:38:58;7.95;;;6.18;;
50319;SDS011;36226;53.464;9.852;2023-04-24T00:41:24;6.53;;;4.93;;
50319;SDS011;36226;53.464;9.852;2023-04-24T00:43:50;6.03;;;4.82;;
50319;SDS011;36226;53.464;9.852;2023-04-24T00:46:15;6.30;;;4.88;;
50319;SDS011;36226;53.464;9.852;2023-04-24T00:48:41;6.30;;;4.50;;
50319;SDS011;36226;53.464;9.852;2023-04-24T00:51:07;7.72;;;4.50;;
50319;SDS011;36226;53.464;9.852;2023-04-24T00:53:33;6.07;;;4.28;;
50319;SDS011;36226;53.464;9.852;2023-04-24T00:55:58;4.32;;;3.70;;
50319;SDS011;36226;53.464;9.852;2023-04-24T00:58:24;4.75;;;3.85;;
50319;SDS011;36226;53.464;9.852;2023-04-24T01:00:50;5.75;;;3.72;;
50319;SDS011;36226;53.464;9.852;2023-04-24T01:03:18;4.63;;;3.63;;
50319;SDS011;36226;53.464;9.852;2023-04-24T01:05:45;4.03;;;3.42;;
50319;SDS011;36226;53.464;9.852;2023-04-24T01:08:10;4.45;;;3.40;;
50319;SDS011;36226;53.464;9.852;2023-04-24T01:10:36;4.70;;;3.63;;
50319;SDS011;36226;53.464;9.852;2023-04-24T01:13:02;4.05;;;3.20;;
50319;SDS011;36226;53.464;9.852;2023-04-24T01:15:28;5.57;;;3.50;;
50319;SDS011;36226;53.464;9.852;2023-04-24T01:17:53;4.97;;;3.20;;
50319;SDS011;36226;53.464;9.852;2023-04-24T01:20:18;6.22;;;3.22;;
50319;SDS011;36226;53.464;9.852;2023-04-24T01:22:44;3.90;;;3.05;;
50319;SDS011;36226;53.464;9.852;2023-04-24T01:25:09;3.70;;;3.00;;
50319;SDS011;36226;53.464;9.852;2023-04-24T01:27:35;5.88;;;3.05;;
50319;SDS011;36226;53.464;9.852;2023-04-24T01:30:00;5.10;;;3.15;;
50319;SDS011;36226;53.464;9.852;2023-04-24T01:32:26;4.30;;;3.33;;
50319;SDS011;36226;53.464;9.852;2023-04-24T01:34:51;3.55;;;2.75;;
50319;SDS011;36226;53.464;9.852;2023-04-24T01:37:16;5.53;;;3.25;;
50319;SDS011;36226;53.464;9.852;2023-04-24T01:39:42;3.25;;;2.80;;
50319;SDS011;36226;53.464;9.852;2023-04-24T01:42:08;4.38;;;2.53;;
50319;SDS011;36226;53.464;9.852;2023-04-24T01:44:34;2.92;;;2.55;;
50319;SDS011;36226;53.464;9.852;2023-04-24T01:47:00;3.22;;;2.58;;
50319;SDS011;36226;53.464;9.852;2023-04-24T01:49:26;2.45;;;2.25;;
50319;SDS011;36226;53.464;9.852;2023-04-24T01:51:51;2.75;;;2.15;;
50319;SDS011;36226;53.464;9.852;2023-04-24T01:54:17;2.53;;;2.03;;
50319;SDS011;36226;53.464;9.852;2023-04-24T01:56:42;3.03;;;2.30;;
50319;SDS011;36226;53.464;9.852;2023-04-24T01:59:09;2.83;;;2.05;;
50319;SDS011;36226;53.464;9.852;2023-04-24T02:01:35;3.33;;;2.22;;
50319;SDS011;36226;53.464;9.852;2023-04-24T02:04:02;2.88;;;2.22;;
50319;SDS011;36226;53.464;9.852;2023-04-24T02:06:27;2.88;;;2.20;;
50319;SDS011;36226;53.464;9.852;2023-04-24T02:08:52;3.83;;;2.13;;
50319;SDS011;36226;53.464;9.852;2023-04-24T02:11:18;3.25;;;2.20;;
50319;SDS011;36226;53.464;9.852;2023-04-24T02:13:46;3.00;;;2.08;;
50319;SDS011;36226;53.464;9.852;2023-04-24T02:16:11;3.67;;;2.10;;
50319;SDS011;36226;53.464;9.852;2023-04-24T02:18:37;3.80;;;2.00;;
50319;SDS011;36226;53.464;9.852;2023-04-24T02:21:02;2.72;;;2.10;;
50319;SDS011;36226;53.464;9.852;2023-04-24T02:23:28;2.60;;;2.22;;
50319;SDS011;36226;53.464;9.852;2023-04-24T02:25:53;2.95;;;2.38;;
50319;SDS011;36226;53.464;9.852;2023-04-24T02:28:19;4.35;;;2.50;;
50319;SDS011;36226;53.464;9.852;2023-04-24T02:30:44;2.83;;;2.30;;
50319;SDS011;36226;53.464;9.852;2023-04-24T02:33:11;4.28;;;2.70;;
50319;SDS011;36226;53.464;9.852;2023-04-24T02:35:36;3.10;;;2.13;;
50319;SDS011;36226;53.464;9.852;2023-04-24T02:38:02;3.08;;;2.30;;
50319;SDS011;36226;53.464;9.852;2023-04-24T02:40:28;5.07;;;1.98;;
50319;SDS011;36226;53.464;9.852;2023-04-24T02:42:53;4.80;;;2.50;;
50319;SDS011;36226;53.464;9.852;2023-04-24T02:45:18;3.40;;;2.35;;
50319;SDS011;36226;53.464;9.852;2023-04-24T02:47:44;2.50;;;2.03;;
50319;SDS011;36226;53.464;9.852;2023-04-24T02:50:09;4.47;;;2.03;;
50319;SDS011;36226;53.464;9.852;2023-04-24T02:52:35;2.05;;;1.70;;
50319;SDS011;36226;53.464;9.852;2023-04-24T02:55:00;4.13;;;1.92;;
50319;SDS011;36226;53.464;9.852;2023-04-24T02:57:26;2.78;;;2.10;;
50319;SDS011;36226;53.464;9.852;2023-04-24T02:59:51;4.30;;;1.40;;
50319;SDS011;36226;53.464;9.852;2023-04-24T03:02:16;1.98;;;1.40;;
50319;SDS011;36226;53.464;9.852;2023-04-24T03:04:42;1.88;;;1.58;;
50319;SDS011;36226;53.464;9.852;2023-04-24T03:07:07;3.22;;;1.75;;
50319;SDS011;36226;53.464;9.852;2023-04-24T03:09:33;2.97;;;1.65;;
50319;SDS011;36226;53.464;9.852;2023-04-24T03:11:58;1.73;;;1.60;;
50319;SDS011;36226;53.464;9.852;2023-04-24T03:14:24;2.55;;;1.70;;
50319;SDS011;36226;53.464;9.852;2023-04-24T03:16:49;2.25;;;1.60;;
50319;SDS011;36226;53.464;9.852;2023-04-24T03:19:15;2.65;;;1.40;;
50319;SDS011;36226;53.464;9.852;2023-04-24T03:21:40;4.18;;;1.83;;
50319;SDS011;36226;53.464;9.852;2023-04-24T03:24:09;3.03;;;1.50;;
50319;SDS011;36226;53.464;9.852;2023-04-24T03:26:34;1.75;;;1.48;;
50319;SDS011;36226;53.464;9.852;2023-04-24T03:29:00;2.35;;;1.35;;
50319;SDS011;36226;53.464;9.852;2023-04-24T03:31:25;1.75;;;1.40;;
50319;SDS011;36226;53.464;9.852;2023-04-24T03:33:51;3.28;;;1.55;;
50319;SDS011;36226;53.464;9.852;2023-04-24T03:36:16;2.55;;;1.60;;
50319;SDS011;36226;53.464;9.852;2023-04-24T03:38:42;2.17;;;1.48;;
50319;SDS011;36226;53.464;9.852;2023-04-24T03:41:08;1.80;;;1.42;;
50319;SDS011;36226;53.464;9.852;2023-04-24T03:43:33;3.53;;;1.60;;
50319;SDS011;36226;53.464;9.852;2023-04-24T03:45:59;2.65;;;1.38;;
50319;SDS011;36226;53.464;9.852;2023-04-24T03:48:25;2.47;;;1.85;;
50319;SDS011;36226;53.464;9.852;2023-04-24T03:50:50;2.60;;;1.70;;
50319;SDS011;36226;53.464;9.852;2023-04-24T03:53:15;1.75;;;1.50;;
50319;SDS011;36226;53.464;9.852;2023-04-24T03:55:41;1.88;;;1.42;;
50319;SDS011;36226;53.464;9.852;2023-04-24T03:58:06;3.78;;;1.90;;
50319;SDS011;36226;53.464;9.852;2023-04-24T04:00:32;2.38;;;1.30;;
50319;SDS011;36226;53.464;9.852;2023-04-24T04:02:58;1.70;;;1.33;;
50319;SDS011;36226;53.464;9.852;2023-04-24T04:05:23;2.03;;;1.67;;
50319;SDS011;36226;53.464;9.852;2023-04-24T04:07:48;1.83;;;1.58;;
50319;SDS011;36226;53.464;9.852;2023-04-24T04:10:14;1.77;;;1.40;;
50319;SDS011;36226;53.464;9.852;2023-04-24T04:12:39;1.90;;;1.38;;
50319;SDS011;36226;53.464;9.852;2023-04-24T04:15:05;1.55;;;1.15;;
50319;SDS011;36226;53.464;9.852;2023-04-24T04:17:31;1.55;;;1.38;;
50319;SDS011;36226;53.464;9.852;2023-04-24T04:19:57;1.67;;;1.42;;
50319;SDS011;36226;53.464;9.852;2023-04-24T04:22:22;4.00;;;1.42;;
50319;SDS011;36226;53.464;9.852;2023-04-24T04:24:48;2.13;;;1.30;;
50319;SDS011;36226;53.464;9.852;2023-04-24T04:27:13;2.25;;;1.60;;
50319;SDS011;36226;53.464;9.852;2023-04-24T04:29:39;1.92;;;1.35;;
50319;SDS011;36226;53.464;9.852;2023-04-24T04:32:05;2.50;;;1.27;;
50319;SDS011;36226;53.464;9.852;2023-04-24T04:34:31;1.77;;;1.35;;
50319;SDS011;36226;53.464;9.852;2023-04-24T04:36:56;1.00;;;0.90;;
50319;SDS011;36226;53.464;9.852;2023-04-24T04:39:24;1.63;;;1.08;;
50319;SDS011;36226;53.464;9.852;2023-04-24T04:41:49;1.58;;;1.30;;
50319;SDS011;36226;53.464;9.852;2023-04-24T04:44:15;1.38;;;1.10;;
50319;SDS011;36226;53.464;9.852;2023-04-24T04:46:40;3.08;;;1.40;;
50319;SDS011;36226;53.464;9.852;2023-04-24T04:49:06;2.50;;;1.02;;
50319;SDS011;36226;53.464;9.852;2023-04-24T04:51:33;1.13;;;1.00;;
50319;SDS011;36226;53.464;9.852;2023-04-24T04:53:59;1.10;;;1.00;;
50319;SDS011;36226;53.464;9.852;2023-04-24T04:56:25;3.45;;;1.10;;
50319;SDS011;36226;53.464;9.852;2023-04-24T04:58:50;1.80;;;1.15;;
50319;SDS011;36226;53.464;9.852;2023-04-24T05:01:16;1.63;;;1.20;;
50319;SDS011;36226;53.464;9.852;2023-04-24T05:03:41;1.55;;;1.08;;
50319;SDS011;36226;53.464;9.852;2023-04-24T05:06:06;1.25;;;0.95;;
50319;SDS011;36226;53.464;9.852;2023-04-24T05:08:32;1.45;;;1.02;;
50319;SDS011;36226;53.464;9.852;2023-04-24T05:10:57;1.20;;;1.00;;
50319;SDS011;36226;53.464;9.852;2023-04-24T05:13:22;1.52;;;1.20;;
50319;SDS011;36226;53.464;9.852;2023-04-24T05:15:48;1.40;;;1.10;;
50319;SDS011;36226;53.464;9.852;2023-04-24T05:18:13;1.00;;;0.90;;
50319;SDS011;36226;53.464;9.852;2023-04-24T05:20:38;1.15;;;0.80;;
50319;SDS011;36226;53.464;9.852;2023-04-24T05:23:04;1.88;;;0.70;;
50319;SDS011;36226;53.464;9.852;2023-04-24T05:25:29;2.28;;;1.00;;
50319;SDS011;36226;53.464;9.852;2023-04-24T05:27:57;1.70;;;0.77;;
50319;SDS011;36226;53.464;9.852;2023-04-24T05:30:22;3.10;;;0.85;;
50319;SDS011;36226;53.464;9.852;2023-04-24T05:32:47;1.20;;;1.00;;
50319;SDS011;36226;53.464;9.852;2023-04-24T05:35:13;1.20;;;0.88;;
50319;SDS011;36226;53.464;9.852;2023-04-24T05:37:38;1.10;;;0.85;;
50319;SDS011;36226;53.464;9.852;2023-04-24T05:40:03;0.73;;;0.73;;
50319;SDS011;36226;53.464;9.852;2023-04-24T05:42:30;2.92;;;1.05;;
50319;SDS011;36226;53.464;9.852;2023-04-24T05:44:56;1.27;;;0.88;;
50319;SDS011;36226;53.464;9.852;2023-04-24T05:47:21;1.83;;;0.95;;
50319;SDS011;36226;53.464;9.852;2023-04-24T05:49:47;1.83;;;1.20;;
50319;SDS011;36226;53.464;9.852;2023-04-24T05:52:12;2.00;;;1.00;;
50319;SDS011;36226;53.464;9.852;2023-04-24T05:54:38;1.70;;;1.10;;
50319;SDS011;36226;53.464;9.852;2023-04-24T05:57:03;1.55;;;0.95;;
50319;SDS011;36226;53.464;9.852;2023-04-24T05:59:32;1.23;;;1.00;;
50319;SDS011;36226;53.464;9.852;2023-04-24T06:01:58;1.60;;;1.20;;
50319;SDS011;36226;53.464;9.852;2023-04-24T06:04:24;1.75;;;1.20;;
50319;SDS011;36226;53.464;9.852;2023-04-24T06:06:52;2.95;;;1.00;;
50319;SDS011;36226;53.464;9.852;2023-04-24T06:09:21;1.73;;;1.10;;
50319;SDS011;36226;53.464;9.852;2023-04-24T06:11:47;1.48;;;1.20;;
50319;SDS011;36226;53.464;9.852;2023-04-24T06:14:12;2.85;;;1.27;;
50319;SDS011;36226;53.464;9.852;2023-04-24T06:16:37;1.60;;;1.20;;
50319;SDS011;36226;53.464;9.852;2023-04-24T06:19:04;3.17;;;1.40;;
50319;SDS011;36226;53.464;9.852;2023-04-24T06:21:29;2.08;;;1.30;;
50319;SDS011;36226;53.464;9.852;2023-04-24T06:23:54;1.48;;;1.13;;
50319;SDS011;36226;53.464;9.852;2023-04-24T06:26:21;2.25;;;1.40;;
50319;SDS011;36226;53.464;9.852;2023-04-24T06:28:47;5.93;;;1.75;;
50319;SDS011;36226;53.464;9.852;2023-04-24T06:31:12;1.80;;;1.48;;
50319;SDS011;36226;53.464;9.852;2023-04-24T06:33:41;2.67;;;1.55;;
50319;SDS011;36226;53.464;9.852;2023-04-24T06:36:07;2.28;;;1.40;;
50319;SDS011;36226;53.464;9.852;2023-04-24T06:38:33;2.55;;;1.60;;
50319;SDS011;36226;53.464;9.852;2023-04-24T06:40:59;3.15;;;1.63;;
50319;SDS011;36226;53.464;9.852;2023-04-24T06:43:24;8.75;;;2.00;;
50319;SDS011;36226;53.464;9.852;2023-04-24T06:45:50;2.22;;;1.70;;
50319;SDS011;36226;53.464;9.852;2023-04-24T06:48:15;2.75;;;1.58;;
50319;SDS011;36226;53.464;9.852;2023-04-24T06:50:41;1.75;;;1.42;;
50319;SDS011;36226;53.464;9.852;2023-04-24T06:53:06;4.32;;;1.90;;
50319;SDS011;36226;53.464;9.852;2023-04-24T06:55:31;2.33;;;1.70;;
50319;SDS011;36226;53.464;9.852;2023-04-24T06:57:57;2.72;;;2.17;;
50319;SDS011;36226;53.464;9.852;2023-04-24T07:00:22;3.35;;;2.47;;
50319;SDS011;36226;53.464;9.852;2023-04-24T07:02:49;3.58;;;2.45;;
50319;SDS011;36226;53.464;9.852;2023-04-24T07:05:14;3.22;;;2.78;;
50319;SDS011;36226;53.464;9.852;2023-04-24T07:07:40;4.30;;;2.85;;
50319;SDS011;36226;53.464;9.852;2023-04-24T07:10:05;3.00;;;2.35;;
50319;SDS011;36226;53.464;9.852;2023-04-24T07:12:31;3.33;;;2.67;;
50319;SDS011;36226;53.464;9.852;2023-04-24T07:14:57;4.90;;;3.00;;
50319;SDS011;36226;53.464;9.852;2023-04-24T07:17:22;3.38;;;2.70;;
50319;SDS011;36226;53.464;9.852;2023-04-24T07:19:47;3.00;;;2.70;;
50319;SDS011;36226;53.464;9.852;2023-04-24T07:22:13;4.10;;;3.25;;
50319;SDS011;36226;53.464;9.852;2023-04-24T07:24:42;3.22;;;2.92;;
50319;SDS011;36226;53.464;9.852;2023-04-24T07:27:08;4.55;;;3.45;;
50319;SDS011;36226;53.464;9.852;2023-04-24T07:29:33;4.10;;;3.35;;
50319;SDS011;36226;53.464;9.852;2023-04-24T07:31:59;4.97;;;3.60;;
50319;SDS011;36226;53.464;9.852;2023-04-24T07:34:24;6.88;;;3.28;;
50319;SDS011;36226;53.464;9.852;2023-04-24T07:36:50;5.00;;;3.65;;
50319;SDS011;36226;53.464;9.852;2023-04-24T07:39:16;3.42;;;2.75;;
50319;SDS011;36226;53.464;9.852;2023-04-24T07:41:41;4.55;;;3.50;;
50319;SDS011;36226;53.464;9.852;2023-04-24T07:44:06;4.47;;;3.92;;
50319;SDS011;36226;53.464;9.852;2023-04-24T07:46:32;5.20;;;3.78;;
50319;SDS011;36226;53.464;9.852;2023-04-24T07:48:58;6.50;;;4.25;;
50319;SDS011;36226;53.464;9.852;2023-04-24T07:51:25;5.65;;;4.18;;
50319;SDS011;36226;53.464;9.852;2023-04-24T07:53:52;5.10;;;4.00;;
50319;SDS011;36226;53.464;9.852;2023-04-24T07:56:18;6.57;;;3.65;;
50319;SDS011;36226;53.464;9.852;2023-04-24T07:58:44;5.60;;;4.18;;
50319;SDS011;36226;53.464;9.852;2023-04-24T08:01:09;4.85;;;4.18;;
50319;SDS011;36226;53.464;9.852;2023-04-24T08:03:34;5.97;;;4.35;;
50319;SDS011;36226;53.464;9.852;2023-04-24T08:06:00;5.85;;;3.95;;
50319;SDS011;36226;53.464;9.852;2023-04-24T08:08:25;5.50;;;4.57;;
50319;SDS011;36226;53.464;9.852;2023-04-24T08:10:51;6.93;;;4.40;;
50319;SDS011;36226;53.464;9.852;2023-04-24T08:13:16;5.47;;;4.18;;
50319;SDS011;36226;53.464;9.852;2023-04-24T08:15:42;5.07;;;4.20;;
50319;SDS011;36226;53.464;9.852;2023-04-24T08:18:07;8.80;;;4.80;;
50319;SDS011;36226;53.464;9.852;2023-04-24T08:20:37;5.20;;;3.67;;
50319;SDS011;36226;53.464;9.852;2023-04-24T08:23:02;5.93;;;4.20;;
50319;SDS011;36226;53.464;9.852;2023-04-24T08:25:28;6.50;;;4.50;;
50319;SDS011;36226;53.464;9.852;2023-04-24T08:27:53;6.35;;;5.10;;
50319;SDS011;36226;53.464;9.852;2023-04-24T08:30:19;8.00;;;4.80;;
50319;SDS011;36226;53.464;9.852;2023-04-24T08:32:45;6.22;;;4.82;;
50319;SDS011;36226;53.464;9.852;2023-04-24T08:35:10;6.72;;;5.03;;
50319;SDS011;36226;53.464;9.852;2023-04-24T08:37:36;7.07;;;5.20;;
50319;SDS011;36226;53.464;9.852;2023-04-24T08:40:03;5.95;;;4.75;;
50319;SDS011;36226;53.464;9.852;2023-04-24T08:42:37;5.65;;;5.05;;
50319;SDS011;36226;53.464;9.852;2023-04-24T08:45:03;6.22;;;5.00;;
50319;SDS011;36226;53.464;9.852;2023-04-24T08:47:29;7.32;;;5.30;;
50319;SDS011;36226;53.464;9.852;2023-04-24T08:49:55;6.85;;;5.18;;
50319;SDS011;36226;53.464;9.852;2023-04-24T08:52:20;7.38;;;5.28;;
50319;SDS011;36226;53.464;9.852;2023-04-24T08:54:47;13.80;;;5.13;;
50319;SDS011;36226;53.464;9.852;2023-04-24T08:57:12;9.27;;;4.55;;
50319;SDS011;36226;53.464;9.852;2023-04-24T08:59:39;6.75;;;5.25;;
50319;SDS011;36226;53.464;9.852;2023-04-24T09:02:04;7.50;;;4.65;;
50319;SDS011;36226;53.464;9.852;2023-04-24T09:04:30;6.90;;;4.80;;
50319;SDS011;36226;53.464;9.852;2023-04-24T09:06:56;6.60;;;4.07;;
50319;SDS011;36226;53.464;9.852;2023-04-24T09:09:23;5.68;;;4.80;;
50319;SDS011;36226;53.464;9.852;2023-04-24T09:11:49;8.05;;;4.95;;
50319;SDS011;36226;53.464;9.852;2023-04-24T09:14:16;5.32;;;4.47;;
50319;SDS011;36226;53.464;9.852;2023-04-24T09:16:42;6.35;;;5.28;;
50319;SDS011;36226;53.464;9.852;2023-04-24T09:19:07;7.53;;;4.53;;
50319;SDS011;36226;53.464;9.852;2023-04-24T09:21:33;6.47;;;4.80;;
50319;SDS011;36226;53.464;9.852;2023-04-24T09:24:00;5.78;;;4.80;;
50319;SDS011;36226;53.464;9.852;2023-04-24T09:26:31;6.57;;;4.70;;
50319;SDS011;36226;53.464;9.852;2023-04-24T09:28:57;7.80;;;4.63;;
50319;SDS011;36226;53.464;9.852;2023-04-24T09:31:23;7.03;;;5.20;;
50319;SDS011;36226;53.464;9.852;2023-04-24T09:34:04;7.78;;;5.50;;
50319;SDS011;36226;53.464;9.852;2023-04-24T09:36:36;7.80;;;5.88;;
50319;SDS011;36226;53.464;9.852;2023-04-24T09:39:10;7.35;;;5.32;;
50319;SDS011;36226;53.464;9.852;2023-04-24T09:41:44;7.15;;;5.50;;
50319;SDS011;36226;53.464;9.852;2023-04-24T09:44:20;9.00;;;5.80;;
50319;SDS011;36226;53.464;9.852;2023-04-24T09:46:50;11.32;;;5.90;;
50319;SDS011;36226;53.464;9.852;2023-04-24T09:49:16;7.38;;;5.80;;
50319;SDS011;36226;53.464;9.852;2023-04-24T09:51:46;7.35;;;5.60;;
50319;SDS011;36226;53.464;9.852;2023-04-24T09:54:15;8.57;;;6.10;;
50319;SDS011;36226;53.464;9.852;2023-04-24T09:56:47;9.90;;;6.32;;
50319;SDS011;36226;53.464;9.852;2023-04-24T09:59:14;10.38;;;6.40;;
50319;SDS011;36226;53.464;9.852;2023-04-24T10:01:41;8.63;;;7.03;;
50319;SDS011;36226;53.464;9.852;2023-04-24T10:04:22;12.75;;;7.25;;
50319;SDS011;36226;53.464;9.852;2023-04-24T10:06:49;10.15;;;7.35;;
50319;SDS011;36226;53.464;9.852;2023-04-24T10:09:16;10.45;;;7.32;;
50319;SDS011;36226;53.464;9.852;2023-04-24T10:11:42;11.98;;;7.45;;
50319;SDS011;36226;53.464;9.852;2023-04-24T10:14:20;9.68;;;7.47;;
50319;SDS011;36226;53.464;9.852;2023-04-24T10:16:47;12.80;;;7.75;;
50319;SDS011;36226;53.464;9.852;2023-04-24T10:19:14;12.48;;;8.45;;
50319;SDS011;36226;53.464;9.852;2023-04-24T10:21:40;10.95;;;7.97;;
50319;SDS011;36226;53.464;9.852;2023-04-24T10:24:13;10.85;;;8.02;;
50319;SDS011;36226;53.464;9.852;2023-04-24T10:26:41;11.05;;;8.15;;
50319;SDS011;36226;53.464;9.852;2023-04-24T10:29:06;12.50;;;8.32;;
50319;SDS011;36226;53.464;9.852;2023-04-24T10:31:36;12.40;;;8.32;;
50319;SDS011;36226;53.464;9.852;2023-04-24T10:34:03;14.20;;;7.90;;
50319;SDS011;36226;53.464;9.852;2023-04-24T10:36:29;13.75;;;8.88;;
50319;SDS011;36226;53.464;9.852;2023-04-24T10:38:57;12.20;;;7.80;;
50319;SDS011;36226;53.464;9.852;2023-04-24T10:41:25;11.52;;;8.30;;
50319;SDS011;36226;53.464;9.852;2023-04-24T10:46:39;13.02;;;8.55;;
50319;SDS011;36226;53.464;9.852;2023-04-24T10:49:08;10.00;;;7.97;;
50319;SDS011;36226;53.464;9.852;2023-04-24T10:51:50;12.13;;;7.90;;
50319;SDS011;36226;53.464;9.852;2023-04-24T10:56:50;10.57;;;7.40;;
50319;SDS011;36226;53.464;9.852;2023-04-24T10:59:26;10.23;;;7.28;;
50319;SDS011;36226;53.464;9.852;2023-04-24T11:01:53;10.27;;;7.07;;
50319;SDS011;36226;53.464;9.852;2023-04-24T11:04:29;11.68;;;7.70;;
50319;SDS011;36226;53.464;9.852;2023-04-24T11:06:56;9.38;;;6.72;;
50319;SDS011;36226;53.464;9.852;2023-04-24T11:09:22;10.48;;;7.15;;
50319;SDS011;36226;53.464;9.852;2023-04-24T11:11:47;10.13;;;6.80;;
50319;SDS011;36226;53.464;9.852;2023-04-24T11:14:16;10.27;;;6.57;;
50319;SDS011;36226;53.464;9.852;2023-04-24T11:16:45;7.35;;;6.57;;
50319;SDS011;36226;53.464;9.852;2023-04-24T11:21:47;10.05;;;7.35;;
50319;SDS011;36226;53.464;9.852;2023-04-24T11:24:24;12.27;;;7.43;;
50319;SDS011;36226;53.464;9.852;2023-04-24T11:27:40;10.32;;;6.70;;
50319;SDS011;36226;53.464;9.852;2023-04-24T11:29:58;10.00;;;6.43;;
50319;SDS011;36226;53.464;9.852;2023-04-24T11:35:00;7.28;;;5.70;;
50319;SDS011;36226;53.464;9.852;2023-04-24T11:37:40;10.00;;;5.88;;
50319;SDS011;36226;53.464;9.852;2023-04-24T11:40:16;8.63;;;5.63;;
50319;SDS011;36226;53.464;9.852;2023-04-24T11:42:45;7.82;;;5.60;;
50319;SDS011;36226;53.464;9.852;2023-04-24T11:47:38;7.65;;;4.93;;
50319;SDS011;36226;53.464;9.852;2023-04-24T11:50:04;9.73;;;5.53;;
50319;SDS011;36226;53.464;9.852;2023-04-24T11:52:31;10.05;;;5.22;;
50319;SDS011;36226;53.464;9.852;2023-04-24T11:54:57;7.10;;;5.18;;
50319;SDS011;36226;53.464;9.852;2023-04-24T11:57:25;6.20;;;5.07;;
50319;SDS011;36226;53.464;9.852;2023-04-24T11:59:53;6.25;;;4.90;;
50319;SDS011;36226;53.464;9.852;2023-04-24T12:02:23;6.68;;;4.90;;
50319;SDS011;36226;53.464;9.852;2023-04-24T12:04:48;7.50;;;5.20;;
50319;SDS011;36226;53.464;9.852;2023-04-24T12:07:14;7.05;;;5.45;;
50319;SDS011;36226;53.464;9.852;2023-04-24T12:09:43;8.43;;;5.40;;
50319;SDS011;36226;53.464;9.852;2023-04-24T12:12:11;7.47;;;5.70;;
50319;SDS011;36226;53.464;9.852;2023-04-24T12:14:52;9.60;;;5.93;;
50319;SDS011;36226;53.464;9.852;2023-04-24T12:17:23;7.90;;;5.25;;
50319;SDS011;36226;53.464;9.852;2023-04-24T12:20:04;9.65;;;5.93;;
50319;SDS011;36226;53.464;9.852;2023-04-24T12:25:19;7.15;;;5.65;;
50319;SDS011;36226;53.464;9.852;2023-04-24T12:27:46;9.15;;;5.68;;
50319;SDS011;36226;53.464;9.852;2023-04-24T12:30:15;7.65;;;5.72;;
50319;SDS011;36226;53.464;9.852;2023-04-24T12:32:42;7.65;;;5.55;;
50319;SDS011;36226;53.464;9.852;2023-04-24T12:37:42;7.97;;;5.43;;
50319;SDS011;36226;53.464;9.852;2023-04-24T12:41:02;7.93;;;4.70;;
50319;SDS011;36226;53.464;9.852;2023-04-24T12:43:50;7.55;;;5.60;;
50319;SDS011;36226;53.464;9.852;2023-04-24T12:46:16;6.53;;;4.82;;
50319;SDS011;36226;53.464;9.852;2023-04-24T12:48:41;6.82;;;5.20;;
50319;SDS011;36226;53.464;9.852;2023-04-24T12:51:07;5.65;;;4.85;;
50319;SDS011;36226;53.464;9.852;2023-04-24T12:53:32;6.03;;;4.43;;
50319;SDS011;36226;53.464;9.852;2023-04-24T13:01:08;5.82;;;4.30;;
50319;SDS011;36226;53.464;9.852;2023-04-24T13:03:33;6.32;;;4.45;;
50319;SDS011;36226;53.464;9.852;2023-04-24T13:05:58;6.03;;;4.18;;
50319;SDS011;36226;53.464;9.852;2023-04-24T13:08:24;5.82;;;4.43;;
50319;SDS011;36226;53.464;9.852;2023-04-24T13:10:49;6.25;;;4.30;;
50319;SDS011;36226;53.464;9.852;2023-04-24T13:13:16;5.82;;;4.30;;
50319;SDS011;36226;53.464;9.852;2023-04-24T13:15:41;5.85;;;4.07;;
50319;SDS011;36226;53.464;9.852;2023-04-24T13:18:06;4.53;;;3.72;;
50319;SDS011;36226;53.464;9.852;2023-04-24T13:20:31;4.65;;;3.67;;
50319;SDS011;36226;53.464;9.852;2023-04-24T13:22:57;6.95;;;4.10;;
50319;SDS011;36226;53.464;9.852;2023-04-24T13:25:22;4.03;;;3.38;;
50319;SDS011;36226;53.464;9.852;2023-04-24T13:27:50;6.47;;;4.00;;
50319;SDS011;36226;53.464;9.852;2023-04-24T13:30:15;4.50;;;4.10;;
50319;SDS011;36226;53.464;9.852;2023-04-24T13:32:41;4.28;;;3.88;;
50319;SDS011;36226;53.464;9.852;2023-04-24T13:35:06;6.45;;;4.03;;
50319;SDS011;36226;53.464;9.852;2023-04-24T13:37:32;5.95;;;3.95;;
50319;SDS011;36226;53.464;9.852;2023-04-24T13:39:57;5.20;;;3.45;;
50319;SDS011;36226;53.464;9.852;2023-04-24T13:42:23;4.20;;;3.75;;
50319;SDS011;36226;53.464;9.852;2023-04-24T13:44:48;4.28;;;3.72;;
50319;SDS011;36226;53.464;9.852;2023-04-24T13:47:13;4.78;;;3.60;;
50319;SDS011;36226;53.464;9.852;2023-04-24T13:49:39;5.15;;;4.07;;
50319;SDS011;36226;53.464;9.852;2023-04-24T13:52:04;4.63;;;4.03;;
50319;SDS011;36226;53.464;9.852;2023-04-24T13:54:30;6.35;;;3.88;;
50319;SDS011;36226;53.464;9.852;2023-04-24T13:56:57;3.97;;;3.58;;
50319;SDS011;36226;53.464;9.852;2023-04-24T13:59:22;4.95;;;3.83;;
50319;SDS011;36226;53.464;9.852;2023-04-24T14:01:48;4.03;;;3.63;;
50319;SDS011;36226;53.464;9.852;2023-04-24T14:04:14;5.40;;;4.15;;
50319;SDS011;36226;53.464;9.852;2023-04-24T14:06:39;4.45;;;3.95;;
50319;SDS011;36226;53.464;9.852;2023-04-24T14:09:05;6.30;;;3.92;;
50319;SDS011;36226;53.464;9.852;2023-04-24T14:11:31;4.45;;;3.97;;
50319;SDS011;36226;53.464;9.852;2023-04-24T14:13:56;5.95;;;4.03;;
50319;SDS011;36226;53.464;9.852;2023-04-24T14:16:22;5.93;;;4.38;;
50319;SDS011;36226;53.464;9.852;2023-04-24T14:18:47;7.22;;;4.57;;
50319;SDS011;36226;53.464;9.852;2023-04-24T14:21:12;5.20;;;4.45;;
50319;SDS011;36226;53.464;9.852;2023-04-24T14:23:38;5.35;;;3.83;;
50319;SDS011;36226;53.464;9.852;2023-04-24T14:26:03;4.82;;;4.30;;
50319;SDS011;36226;53.464;9.852;2023-04-24T14:28:28;5.35;;;4.50;;
50319;SDS011;36226;53.464;9.852;2023-04-24T14:30:54;6.72;;;4.55;;
50319;SDS011;36226;53.464;9.852;2023-04-24T14:33:19;9.75;;;5.53;;
50319;SDS011;36226;53.464;9.852;2023-04-24T14:35:45;7.15;;;5.88;;
50319;SDS011;36226;53.464;9.852;2023-04-24T14:38:10;6.60;;;5.40;;
50319;SDS011;36226;53.464;9.852;2023-04-24T14:40:36;7.32;;;5.72;;
50319;SDS011;36226;53.464;9.852;2023-04-24T14:43:02;7.40;;;5.28;;
50319;SDS011;36226;53.464;9.852;2023-04-24T14:45:27;8.70;;;5.88;;
50319;SDS011;36226;53.464;9.852;2023-04-24T14:47:53;9.07;;;6.38;;
50319;SDS011;36226;53.464;9.852;2023-04-24T14:50:19;7.97;;;5.90;;
50319;SDS011;36226;53.464;9.852;2023-04-24T14:52:45;8.65;;;6.57;;
50319;SDS011;36226;53.464;9.852;2023-04-24T14:55:11;9.63;;;6.40;;
50319;SDS011;36226;53.464;9.852;2023-04-24T14:57:36;7.68;;;5.35;;
50319;SDS011;36226;53.464;9.852;2023-04-24T15:00:02;5.82;;;4.70;;
50319;SDS011;36226;53.464;9.852;2023-04-24T15:02:31;7.53;;;5.32;;
50319;SDS011;36226;53.464;9.852;2023-04-24T15:04:57;7.43;;;5.00;;